Time;durP1;ratioP1;P1;durP2;ratioP2;P2;SDS_P1;SDS_P2;PMS_P1;PMS_P2;Temp;Humidity;BMP_temperature;BMP_pressure;BME280_temperature;BME280_humidity;BME280_pressure;Samples;Min_cycle;Max_cycle;Signal;HPM_P1;HPM_P2
2022/03/10 00:00:06;;;;;;;23.42;10.43;;;;;;;;;;6221818;28;20045;-80
2022/03/10 00:03:13;;;;;;;25.75;11.27;;;;;;;;;;6222746;28;20094;-80
2022/03/10 00:06:14;;;;;;;25.30;11.02;;;;;;;;;;6221032;28;20050;-81
2022/03/10 00:09:16;;;;;;;22.25;10.02;;;;;;;;;;6243261;28;20045;-80
2022/03/10 00:12:18;;;;;;;29.25;11.02;;;;;;;;;;6246073;28;20164;-82
2022/03/10 00:15:23;;;;;;;26.33;11.73;;;;;;;;;;6261382;28;20051;-78
2022/03/10 00:18:26;;;;;;;29.67;11.48;;;;;;;;;;6259155;28;20042;-79
2022/03/10 00:21:27;;;;;;;21.48;10.30;;;;;;;;;;6243579;28;20109;-80
2022/03/10 00:24:29;;;;;;;27.33;10.70;;;;;;;;;;6246021;28;20041;-80
2022/03/10 00:27:30;;;;;;;23.42;9.88;;;;;;;;;;6235977;28;20219;-79
2022/03/10 00:30:32;;;;;;;21.00;9.63;;;;;;;;;;6220724;28;20048;-79
2022/03/10 00:33:34;;;;;;;21.20;9.98;;;;;;;;;;6220966;28;20113;-80
2022/03/10 00:36:35;;;;;;;20.42;10.07;;;;;;;;;;6235942;28;20123;-80
2022/03/10 00:39:37;;;;;;;20.65;8.43;;;;;;;;;;6243677;28;20061;-79
2022/03/10 00:42:40;;;;;;;20.90;9.07;;;;;;;;;;6234840;28;20117;-80
2022/03/10 00:45:41;;;;;;;20.38;8.70;;;;;;;;;;6219449;28;20101;-79
2022/03/10 00:48:43;;;;;;;19.08;8.73;;;;;;;;;;6235713;28;20045;-80
2022/03/10 00:51:48;;;;;;;18.85;8.48;;;;;;;;;;6240117;28;20083;-79
2022/03/10 00:54:50;;;;;;;15.88;8.95;;;;;;;;;;6226648;28;20641;-79
2022/03/10 00:57:52;;;;;;;20.52;9.05;;;;;;;;;;6243672;28;20127;-79
2022/03/10 01:00:53;;;;;;;19.13;8.07;;;;;;;;;;6243864;28;20045;-79
2022/03/10 01:03:55;;;;;;;22.20;9.25;;;;;;;;;;6244470;28;20392;-81
2022/03/10 01:06:57;;;;;;;20.25;9.07;;;;;;;;;;6226850;28;20041;-80
2022/03/10 01:09:59;;;;;;;22.33;9.23;;;;;;;;;;6218616;28;20042;-79
2022/03/10 01:13:01;;;;;;;18.95;8.02;;;;;;;;;;6246803;28;20062;-80
2022/03/10 01:16:03;;;;;;;17.40;9.10;;;;;;;;;;6235771;28;20124;-79
2022/03/10 01:19:05;;;;;;;18.33;9.07;;;;;;;;;;6220563;28;20062;-79
2022/03/10 01:22:07;;;;;;;16.52;8.13;;;;;;;;;;6221292;28;20125;-80
2022/03/10 01:25:09;;;;;;;17.45;9.00;;;;;;;;;;6215126;28;20044;-79
2022/03/10 01:28:12;;;;;;;18.13;8.32;;;;;;;;;;6223001;28;20057;-79
2022/03/10 01:31:13;;;;;;;19.00;8.30;;;;;;;;;;6243145;28;20126;-79
2022/03/10 01:34:15;;;;;;;17.55;8.50;;;;;;;;;;6244509;28;20049;-80
2022/03/10 01:37:17;;;;;;;22.10;8.75;;;;;;;;;;6240785;28;20420;-79
2022/03/10 01:40:19;;;;;;;18.65;8.25;;;;;;;;;;6219888;28;20117;-79
2022/03/10 01:43:21;;;;;;;17.55;8.18;;;;;;;;;;6220177;28;20407;-79
2022/03/10 01:46:23;;;;;;;19.08;8.48;;;;;;;;;;6220464;28;20069;-80
2022/03/10 01:49:25;;;;;;;17.33;8.18;;;;;;;;;;6217154;28;20736;-79
2022/03/10 01:52:27;;;;;;;18.17;8.68;;;;;;;;;;6221265;28;20066;-80
2022/03/10 01:55:29;;;;;;;19.10;8.70;;;;;;;;;;6221179;28;20088;-79
2022/03/10 01:58:32;;;;;;;20.27;9.07;;;;;;;;;;6253525;28;20494;-79
2022/03/10 02:01:34;;;;;;;21.13;9.75;;;;;;;;;;6219755;28;20124;-80
2022/03/10 02:04:37;;;;;;;19.13;9.15;;;;;;;;;;6217782;28;20056;-80
2022/03/10 02:11:01;;;;;;;17.83;8.53;;;;;;;;;;6240327;28;20749;-80
2022/03/10 02:17:19;;;;;;;17.08;8.70;;;;;;;;;;6232692;28;20048;-80
2022/03/10 02:17:25;;;;;;;19.48;8.63;;;;;;;;;;6245455;28;20060;-80
2022/03/10 02:20:27;;;;;;;21.42;8.82;;;;;;;;;;6220805;28;20049;-80
2022/03/10 02:23:29;;;;;;;16.38;8.45;;;;;;;;;;6231671;28;20100;-81
2022/03/10 02:26:30;;;;;;;16.63;8.82;;;;;;;;;;6223716;28;20042;-80
2022/03/10 02:29:32;;;;;;;16.08;7.45;;;;;;;;;;6198159;28;20113;-79
2022/03/10 02:32:35;;;;;;;18.08;8.43;;;;;;;;;;6202236;28;20070;-80
2022/03/10 02:35:36;;;;;;;17.77;8.70;;;;;;;;;;6226311;28;20129;-80
2022/03/10 02:38:38;;;;;;;18.13;8.85;;;;;;;;;;6243305;28;20126;-81
2022/03/10 02:41:40;;;;;;;15.52;8.27;;;;;;;;;;6243795;28;20123;-80
2022/03/10 02:44:44;;;;;;;17.63;8.65;;;;;;;;;;6228851;28;20042;-80
2022/03/10 02:47:46;;;;;;;18.08;8.80;;;;;;;;;;6227775;28;20113;-79
2022/03/10 02:50:47;;;;;;;18.30;7.78;;;;;;;;;;6217351;28;20049;-80
2022/03/10 02:53:49;;;;;;;22.58;8.65;;;;;;;;;;6241037;28;20049;-80
2022/03/10 02:56:50;;;;;;;20.60;8.80;;;;;;;;;;6228423;28;20447;-81
2022/03/10 02:59:52;;;;;;;17.58;7.50;;;;;;;;;;6228387;28;20563;-80
2022/03/10 03:02:54;;;;;;;18.55;8.48;;;;;;;;;;6226451;28;20065;-79
2022/03/10 03:05:55;;;;;;;19.70;7.22;;;;;;;;;;6227735;28;20057;-81
2022/03/10 03:08:58;;;;;;;20.60;7.97;;;;;;;;;;6227439;28;20101;-79
2022/03/10 03:11:59;;;;;;;20.33;7.78;;;;;;;;;;6230185;28;20105;-80
2022/03/10 03:15:01;;;;;;;17.30;7.85;;;;;;;;;;6252338;28;20072;-80
2022/03/10 03:18:03;;;;;;;19.02;8.60;;;;;;;;;;6250631;28;20563;-80
2022/03/10 03:21:04;;;;;;;17.88;7.07;;;;;;;;;;6249946;28;20054;-80
2022/03/10 03:24:06;;;;;;;18.70;8.13;;;;;;;;;;6252498;28;20113;-80
2022/03/10 03:27:08;;;;;;;18.65;8.43;;;;;;;;;;6251156;28;20098;-81
2022/03/10 03:30:11;;;;;;;17.92;7.70;;;;;;;;;;6250932;28;20045;-80
2022/03/10 03:33:12;;;;;;;14.35;7.22;;;;;;;;;;6252220;28;20045;-80
2022/03/10 03:36:14;;;;;;;15.50;8.25;;;;;;;;;;6244186;28;20069;-80
2022/03/10 03:39:16;;;;;;;19.00;8.18;;;;;;;;;;6211119;28;20080;-80
2022/03/10 03:42:18;;;;;;;20.33;7.97;;;;;;;;;;6226202;28;20065;-79
2022/03/10 03:45:20;;;;;;;17.33;7.40;;;;;;;;;;6227323;28;20053;-80
2022/03/10 03:48:24;;;;;;;17.90;8.05;;;;;;;;;;6224419;28;20119;-79
2022/03/10 03:51:26;;;;;;;16.88;7.63;;;;;;;;;;6224074;28;20106;-81
2022/03/10 03:54:27;;;;;;;22.98;8.68;;;;;;;;;;6232112;28;20049;-79
2022/03/10 03:57:29;;;;;;;24.08;8.95;;;;;;;;;;6250820;28;20485;-80
2022/03/10 04:00:31;;;;;;;21.60;8.23;;;;;;;;;;6248765;28;20121;-80
2022/03/10 04:03:32;;;;;;;21.35;8.02;;;;;;;;;;6245534;28;20052;-79
2022/03/10 04:06:34;;;;;;;19.95;8.13;;;;;;;;;;6246004;28;20101;-78
2022/03/10 04:09:36;;;;;;;15.90;7.60;;;;;;;;;;6236038;28;20080;-79
2022/03/10 04:12:37;;;;;;;19.08;7.65;;;;;;;;;;6232427;28;20121;-79
2022/03/10 04:15:39;;;;;;;19.85;8.32;;;;;;;;;;6247684;28;20127;-79
2022/03/10 04:18:41;;;;;;;20.17;8.63;;;;;;;;;;6251310;28;20503;-79
2022/03/10 04:21:42;;;;;;;19.55;7.88;;;;;;;;;;6246541;28;20114;-80
2022/03/10 04:24:44;;;;;;;16.92;8.70;;;;;;;;;;6249478;28;20068;-80
2022/03/10 04:27:46;;;;;;;21.85;9.23;;;;;;;;;;6237765;28;20552;-81
2022/03/10 04:30:48;;;;;;;23.45;10.77;;;;;;;;;;6226460;28;20045;-80
2022/03/10 04:33:50;;;;;;;27.70;11.25;;;;;;;;;;6225941;28;20147;-81
2022/03/10 04:36:52;;;;;;;28.38;11.63;;;;;;;;;;6225509;28;20088;-80
2022/03/10 04:39:53;;;;;;;20.90;10.43;;;;;;;;;;6235365;28;20108;-80
2022/03/10 04:42:58;;;;;;;24.38;10.02;;;;;;;;;;6236866;28;20042;-81
2022/03/10 04:45:59;;;;;;;19.25;9.02;;;;;;;;;;6224479;28;20054;-81
2022/03/10 04:49:01;;;;;;;20.17;8.50;;;;;;;;;;6225280;28;20061;-81
2022/03/10 04:52:03;;;;;;;18.17;8.85;;;;;;;;;;6239046;28;20049;-81
2022/03/10 04:55:06;;;;;;;22.75;8.82;;;;;;;;;;6247518;28;20103;-79
2022/03/10 04:58:08;;;;;;;17.77;7.28;;;;;;;;;;6233351;28;20435;-80
2022/03/10 05:01:11;;;;;;;16.65;7.60;;;;;;;;;;6223470;28;20069;-80
2022/03/10 05:04:13;;;;;;;18.38;8.18;;;;;;;;;;6223255;28;20042;-81
2022/03/10 05:07:14;;;;;;;19.48;8.23;;;;;;;;;;6225160;28;20137;-79
2022/03/10 05:10:17;;;;;;;17.58;8.00;;;;;;;;;;6221991;28;20665;-81
2022/03/10 05:13:19;;;;;;;18.83;8.40;;;;;;;;;;6223005;28;20069;-80
2022/03/10 05:16:20;;;;;;;18.60;8.48;;;;;;;;;;6217715;28;20164;-81
2022/03/10 05:19:23;;;;;;;23.63;9.07;;;;;;;;;;6237409;28;20143;-81
2022/03/10 05:22:41;;;;;;;20.58;7.70;;;;;;;;;;6245256;28;20129;-81
2022/03/10 05:25:42;;;;;;;20.67;9.20;;;;;;;;;;6239516;28;20061;-80
2022/03/10 05:28:44;;;;;;;17.27;8.57;;;;;;;;;;6217678;28;20057;-81
2022/03/10 05:31:46;;;;;;;20.15;8.07;;;;;;;;;;6222887;28;20096;-79
2022/03/10 05:34:47;;;;;;;19.33;8.90;;;;;;;;;;6222717;28;20042;-80
2022/03/10 05:37:49;;;;;;;19.92;8.07;;;;;;;;;;6254951;28;20435;-80
2022/03/10 05:40:51;;;;;;;20.02;8.23;;;;;;;;;;6204813;28;20061;-80
2022/03/10 05:43:53;;;;;;;19.95;9.00;;;;;;;;;;6223247;28;20864;-81
2022/03/10 05:46:54;;;;;;;17.00;8.65;;;;;;;;;;6225858;28;20139;-80
2022/03/10 05:49:56;;;;;;;17.13;8.82;;;;;;;;;;6223896;28;20120;-82
2022/03/10 05:52:58;;;;;;;16.73;7.95;;;;;;;;;;6224726;28;20057;-81
2022/03/10 05:56:00;;;;;;;20.35;8.10;;;;;;;;;;6224281;28;20050;-79
2022/03/10 05:59:02;;;;;;;25.60;9.75;;;;;;;;;;6225812;28;20065;-80
2022/03/10 06:02:03;;;;;;;22.80;9.27;;;;;;;;;;6224712;28;20041;-80
2022/03/10 06:05:05;;;;;;;20.38;8.15;;;;;;;;;;6223003;28;20054;-79
2022/03/10 06:08:07;;;;;;;14.82;8.05;;;;;;;;;;6223657;28;20448;-80
2022/03/10 06:11:09;;;;;;;20.73;9.02;;;;;;;;;;6225137;28;20116;-78
2022/03/10 06:14:11;;;;;;;29.17;13.35;;;;;;;;;;6247534;28;20458;-79
2022/03/10 06:17:13;;;;;;;24.98;11.73;;;;;;;;;;6248242;28;20069;-79
2022/03/10 06:20:15;;;;;;;31.13;12.25;;;;;;;;;;6247507;28;20117;-79
2022/03/10 06:23:17;;;;;;;22.67;9.80;;;;;;;;;;6281485;28;20529;-79
2022/03/10 06:26:19;;;;;;;19.65;9.70;;;;;;;;;;6247606;28;20498;-79
2022/03/10 06:29:20;;;;;;;25.23;10.48;;;;;;;;;;6224721;28;20110;-79
2022/03/10 06:32:23;;;;;;;25.23;10.77;;;;;;;;;;6273934;28;20650;-79
2022/03/10 06:35:25;;;;;;;29.23;12.75;;;;;;;;;;6275103;28;20060;-79
2022/03/10 06:38:27;;;;;;;24.85;12.40;;;;;;;;;;6250442;28;20045;-80
2022/03/10 06:41:28;;;;;;;34.13;13.75;;;;;;;;;;6248910;28;20061;-79
2022/03/10 06:44:31;;;;;;;29.80;13.25;;;;;;;;;;6226876;28;20072;-80
2022/03/10 06:47:33;;;;;;;29.05;12.65;;;;;;;;;;6242321;28;20056;-78
2022/03/10 06:50:34;;;;;;;23.60;13.10;;;;;;;;;;6249793;28;20061;-80
2022/03/10 06:53:36;;;;;;;29.67;12.50;;;;;;;;;;6220554;28;20085;-80
2022/03/10 06:56:38;;;;;;;25.48;11.02;;;;;;;;;;6223955;28;20157;-80
2022/03/10 06:59:41;;;;;;;40.13;16.13;;;;;;;;;;6246377;28;20483;-80
2022/03/10 07:02:42;;;;;;;34.88;15.23;;;;;;;;;;6245083;28;20460;-80
2022/03/10 07:05:44;;;;;;;28.48;12.00;;;;;;;;;;6242901;28;20048;-80
2022/03/10 07:08:46;;;;;;;26.17;12.30;;;;;;;;;;6214863;28;20101;-81
2022/03/10 07:11:48;;;;;;;21.80;10.70;;;;;;;;;;6217596;28;20046;-82
2022/03/10 07:14:49;;;;;;;21.75;10.77;;;;;;;;;;6214700;28;20034;-80
2022/03/10 07:17:51;;;;;;;26.98;10.80;;;;;;;;;;6215065;28;20091;-80
2022/03/10 07:20:53;;;;;;;32.15;14.10;;;;;;;;;;6219223;28;20044;-80
2022/03/10 07:23:54;;;;;;;26.90;11.65;;;;;;;;;;6221142;28;20180;-80
2022/03/10 07:26:56;;;;;;;22.80;10.70;;;;;;;;;;6203035;28;20121;-82
2022/03/10 07:29:57;;;;;;;23.30;10.05;;;;;;;;;;6218093;28;20052;-81
2022/03/10 07:32:59;;;;;;;25.65;12.10;;;;;;;;;;6215987;28;20120;-79
2022/03/10 07:36:01;;;;;;;23.30;10.90;;;;;;;;;;6221810;28;20624;-81
2022/03/10 07:39:03;;;;;;;22.85;11.25;;;;;;;;;;6216576;28;20128;-79
2022/03/10 07:42:05;;;;;;;22.48;11.75;;;;;;;;;;6212545;28;20579;-80
2022/03/10 07:45:07;;;;;;;23.02;10.57;;;;;;;;;;6215627;28;20100;-80
2022/03/10 07:48:09;;;;;;;21.55;10.05;;;;;;;;;;6239989;28;20099;-80
2022/03/10 07:51:10;;;;;;;22.92;10.23;;;;;;;;;;6242931;28;20092;-80
2022/03/10 07:54:12;;;;;;;20.52;10.43;;;;;;;;;;6243623;28;20050;-80
2022/03/10 07:57:14;;;;;;;27.30;12.27;;;;;;;;;;6243853;28;20105;-79
2022/03/10 08:00:16;;;;;;;22.55;12.20;;;;;;;;;;6243706;28;20179;-84
2022/03/10 08:03:17;;;;;;;24.58;11.05;;;;;;;;;;6241107;28;20129;-84
2022/03/10 08:06:19;;;;;;;21.25;9.40;;;;;;;;;;6239010;28;20058;-81
2022/03/10 08:09:21;;;;;;;34.28;14.65;;;;;;;;;;6240242;28;20124;-81
2022/03/10 08:12:26;;;;;;;32.90;15.00;;;;;;;;;;6233983;28;20512;-83
2022/03/10 08:15:28;;;;;;;22.88;12.27;;;;;;;;;;6218620;28;20276;-80
2022/03/10 08:18:30;;;;;;;26.15;12.52;;;;;;;;;;6216929;28;20511;-78
2022/03/10 08:21:32;;;;;;;25.23;12.85;;;;;;;;;;6231934;28;20041;-81
2022/03/10 08:24:36;;;;;;;22.23;11.77;;;;;;;;;;6239531;28;20136;-79
2022/03/10 08:27:37;;;;;;;21.05;11.18;;;;;;;;;;6251980;28;20052;-84
2022/03/10 08:30:39;;;;;;;21.17;11.32;;;;;;;;;;6236082;28;20511;-79
2022/03/10 08:33:41;;;;;;;21.23;11.77;;;;;;;;;;6240014;28;20129;-80
2022/03/10 08:36:42;;;;;;;18.27;9.80;;;;;;;;;;6225686;28;20507;-80
2022/03/10 08:39:44;;;;;;;19.67;10.30;;;;;;;;;;6215624;28;20072;-83
2022/03/10 08:42:48;;;;;;;22.25;10.18;;;;;;;;;;6216340;28;20121;-85
2022/03/10 08:45:51;;;;;;;19.25;10.80;;;;;;;;;;6216736;28;20170;-79
2022/03/10 08:48:53;;;;;;;20.58;9.20;;;;;;;;;;6216983;28;20042;-80
2022/03/10 08:51:55;;;;;;;16.90;10.43;;;;;;;;;;6239870;28;20578;-82
2022/03/10 08:54:57;;;;;;;18.77;9.90;;;;;;;;;;6241293;28;20256;-85
2022/03/10 08:58:00;;;;;;;17.55;10.13;;;;;;;;;;6235917;28;20071;-81
2022/03/10 09:01:02;;;;;;;19.58;11.15;;;;;;;;;;6238368;28;20455;-80
2022/03/10 09:04:24;;;;;;;21.85;10.00;;;;;;;;;;6240886;28;20033;-79
2022/03/10 09:07:25;;;;;;;20.35;10.30;;;;;;;;;;6240410;28;20120;-80
2022/03/10 09:10:27;;;;;;;20.17;10.38;;;;;;;;;;6244716;28;20057;-79
2022/03/10 09:13:29;;;;;;;19.25;9.93;;;;;;;;;;6227740;28;20129;-81
2022/03/10 09:16:30;;;;;;;18.70;10.50;;;;;;;;;;6223071;28;20440;-82
2022/03/10 09:19:32;;;;;;;18.05;9.85;;;;;;;;;;6220079;28;20141;-81
2022/03/10 09:22:34;;;;;;;20.02;9.93;;;;;;;;;;6222840;28;20046;-81
2022/03/10 09:25:35;;;;;;;18.83;9.98;;;;;;;;;;6222293;28;20045;-81
2022/03/10 09:28:37;;;;;;;17.98;10.02;;;;;;;;;;6237888;28;20045;-82
2022/03/10 09:31:39;;;;;;;16.08;9.70;;;;;;;;;;6245282;28;20124;-82
2022/03/10 09:34:41;;;;;;;20.85;9.77;;;;;;;;;;6239430;28;20618;-80
2022/03/10 09:37:43;;;;;;;13.95;9.05;;;;;;;;;;6234506;28;20097;-80
2022/03/10 09:40:52;;;;;;;14.82;8.93;;;;;;;;;;6236671;28;20125;-80
2022/03/10 09:43:55;;;;;;;17.73;9.90;;;;;;;;;;6232721;28;20128;-81
2022/03/10 09:47:02;;;;;;;16.05;9.20;;;;;;;;;;6228246;28;20572;-79
2022/03/10 09:50:06;;;;;;;19.73;9.20;;;;;;;;;;6224745;28;20610;-80
2022/03/10 09:53:07;;;;;;;15.43;8.93;;;;;;;;;;6222466;28;20776;-79
2022/03/10 09:56:13;;;;;;;16.67;9.65;;;;;;;;;;6212792;28;20567;-79
2022/03/10 09:59:14;;;;;;;17.23;9.07;;;;;;;;;;6218565;28;20054;-79
2022/03/10 10:02:17;;;;;;;13.90;8.45;;;;;;;;;;6219376;28;20135;-79
2022/03/10 10:05:29;;;;;;;15.32;9.43;;;;;;;;;;6218111;28;20042;-80
2022/03/10 10:08:31;;;;;;;15.48;9.00;;;;;;;;;;6219647;28;20042;-79
2022/03/10 10:11:34;;;;;;;14.82;9.23;;;;;;;;;;6220428;28;20069;-79
2022/03/10 10:14:39;;;;;;;17.67;9.07;;;;;;;;;;6245318;28;20116;-79
2022/03/10 10:17:40;;;;;;;21.20;10.13;;;;;;;;;;6245183;28;20083;-80
2022/03/10 10:21:04;;;;;;;15.32;9.50;;;;;;;;;;6242337;28;20059;-79
2022/03/10 10:24:15;;;;;;;14.73;9.15;;;;;;;;;;6242269;28;20042;-78
2022/03/10 10:27:23;;;;;;;13.75;8.52;;;;;;;;;;6242916;28;20045;-79
2022/03/10 10:30:26;;;;;;;13.02;8.18;;;;;;;;;;6243594;28;20534;-80
2022/03/10 10:33:30;;;;;;;15.15;9.07;;;;;;;;;;6244928;28;20180;-79
2022/03/10 10:36:34;;;;;;;15.40;8.93;;;;;;;;;;6240179;28;20100;-78
2022/03/10 10:39:51;;;;;;;16.90;9.32;;;;;;;;;;6234796;28;20139;-82
2022/03/10 10:42:54;;;;;;;14.38;8.80;;;;;;;;;;6231255;28;20046;-79
2022/03/10 10:45:56;;;;;;;14.20;8.57;;;;;;;;;;6223241;28;20053;-78
2022/03/10 10:49:03;;;;;;;12.45;8.48;;;;;;;;;;6227761;28;20106;-80
2022/03/10 10:52:11;;;;;;;15.07;9.05;;;;;;;;;;6229066;28;20133;-78
2022/03/10 10:55:13;;;;;;;14.27;8.45;;;;;;;;;;6253333;28;20071;-80
2022/03/10 10:58:15;;;;;;;12.77;8.38;;;;;;;;;;6241985;28;20132;-79
2022/03/10 11:01:30;;;;;;;17.25;9.05;;;;;;;;;;6248571;28;20052;-79
2022/03/10 11:04:33;;;;;;;11.68;8.48;;;;;;;;;;6246334;28;20052;-79
2022/03/10 11:07:35;;;;;;;15.52;8.43;;;;;;;;;;6221056;28;20133;-79
2022/03/10 11:10:37;;;;;;;15.95;8.35;;;;;;;;;;6223120;28;20056;-79
2022/03/10 11:13:39;;;;;;;16.40;8.57;;;;;;;;;;6218834;28;20161;-80
2022/03/10 11:16:42;;;;;;;12.55;7.70;;;;;;;;;;6216325;28;20049;-79
2022/03/10 11:19:46;;;;;;;14.15;8.73;;;;;;;;;;6216675;28;20053;-82
2022/03/10 11:23:02;;;;;;;14.38;8.80;;;;;;;;;;6219761;28;20109;-79
2022/03/10 11:26:11;;;;;;;13.57;8.55;;;;;;;;;;6218666;28;20543;-80
2022/03/10 11:29:21;;;;;;;12.13;8.43;;;;;;;;;;6220421;28;20189;-80
2022/03/10 11:32:32;;;;;;;12.82;8.05;;;;;;;;;;6217499;28;20552;-81
2022/03/10 11:35:39;;;;;;;15.20;10.00;;;;;;;;;;6236783;28;20136;-80
2022/03/10 11:39:07;;;;;;;11.45;7.72;;;;;;;;;;6232581;28;20049;-81
2022/03/10 11:42:32;;;;;;;12.43;7.80;;;;;;;;;;6250897;28;20129;-81
2022/03/10 11:45:34;;;;;;;10.63;6.55;;;;;;;;;;6218911;28;20192;-79
2022/03/10 11:48:36;;;;;;;11.90;6.97;;;;;;;;;;6228436;28;20068;-79
2022/03/10 11:51:52;;;;;;;13.75;8.30;;;;;;;;;;6244943;28;20514;-79
2022/03/10 11:55:08;;;;;;;11.02;7.43;;;;;;;;;;6245838;28;20109;-82
2022/03/10 11:58:13;;;;;;;14.38;8.23;;;;;;;;;;6233595;28;20057;-82
2022/03/10 12:01:19;;;;;;;11.43;7.20;;;;;;;;;;6221078;28;20503;-82
2022/03/10 12:04:21;;;;;;;18.55;9.05;;;;;;;;;;6224279;28;20049;-82
2022/03/10 12:07:29;;;;;;;10.57;6.68;;;;;;;;;;6237999;28;20067;-81
2022/03/10 12:10:40;;;;;;;15.05;8.32;;;;;;;;;;6248698;28;20095;-81
2022/03/10 12:13:46;;;;;;;10.65;6.80;;;;;;;;;;6248285;28;20064;-82
2022/03/10 12:16:48;;;;;;;9.90;5.93;;;;;;;;;;6249472;28;20064;-82
2022/03/10 12:20:16;;;;;;;8.30;5.30;;;;;;;;;;6247243;28;20045;-81
2022/03/10 12:23:19;;;;;;;10.25;5.82;;;;;;;;;;6221844;28;20599;-81
2022/03/10 12:26:25;;;;;;;;;;;;;;;;;;6225658;28;20049;-81
2022/03/10 12:29:30;;;;;;;10.70;6.05;;;;;;;;;;6223221;28;19921;-81
2022/03/10 12:32:32;;;;;;;7.90;5.47;;;;;;;;;;6223220;28;20114;-81
2022/03/10 12:35:36;;;;;;;10.23;6.50;;;;;;;;;;6224807;28;20618;-83
2022/03/10 12:38:46;;;;;;;11.45;6.38;;;;;;;;;;6222608;28;20121;-82
2022/03/10 12:41:54;;;;;;;11.43;6.00;;;;;;;;;;6223797;28;20042;-82
2022/03/10 12:44:57;;;;;;;12.48;6.13;;;;;;;;;;6223761;28;20045;-81
2022/03/10 12:48:14;;;;;;;10.00;5.60;;;;;;;;;;6237904;28;20114;-81
2022/03/10 12:51:23;;;;;;;8.43;4.88;;;;;;;;;;6225531;28;20496;-83
2022/03/10 12:54:25;;;;;;;22.70;9.25;;;;;;;;;;6244912;28;20088;-84
2022/03/10 12:57:28;;;;;;;14.00;5.85;;;;;;;;;;6235611;28;20053;-83
2022/03/10 13:00:29;;;;;;;7.75;5.22;;;;;;;;;;6252892;28;20056;-84
2022/03/10 13:03:55;;;;;;;11.07;5.32;;;;;;;;;;6236386;28;20081;-83
2022/03/10 13:06:58;;;;;;;13.73;7.00;;;;;;;;;;6266796;28;20671;-81
2022/03/10 13:10:04;;;;;;;;;;;;;;;;;;6231121;28;20083;-80
2022/03/10 13:13:06;;;;;;;7.57;5.15;;;;;;;;;;6234136;28;19929;-78
2022/03/10 13:16:08;;;;;;;13.43;7.75;;;;;;;;;;6225738;28;20046;-80
2022/03/10 13:19:32;;;;;;;16.05;9.43;;;;;;;;;;6227217;28;20832;-80
2022/03/10 13:22:34;;;;;;;9.25;5.63;;;;;;;;;;6218520;28;20120;-80
2022/03/10 13:25:40;;;;;;;11.57;6.45;;;;;;;;;;6210773;28;20072;-79
2022/03/10 13:28:41;;;;;;;10.85;6.10;;;;;;;;;;6224283;28;20084;-81
2022/03/10 13:31:43;;;;;;;9.30;6.00;;;;;;;;;;6235276;28;20124;-82
2022/03/10 13:34:45;;;;;;;10.10;6.32;;;;;;;;;;6228465;28;20109;-83
2022/03/10 13:37:48;;;;;;;12.13;6.70;;;;;;;;;;6266965;28;20118;-80
2022/03/10 13:40:52;;;;;;;9.35;5.85;;;;;;;;;;6269233;28;20501;-82
2022/03/10 13:43:53;;;;;;;9.95;6.03;;;;;;;;;;6227571;28;20046;-82
2022/03/10 13:47:09;;;;;;;12.63;6.95;;;;;;;;;;6219986;28;20042;-82
2022/03/10 13:50:11;;;;;;;10.85;5.88;;;;;;;;;;6218413;28;20050;-82
2022/03/10 13:53:13;;;;;;;9.38;5.57;;;;;;;;;;6218621;28;20049;-81
2022/03/10 13:56:15;;;;;;;8.57;5.70;;;;;;;;;;6219865;28;20081;-82
2022/03/10 13:59:17;;;;;;;9.43;5.90;;;;;;;;;;6218861;28;20120;-81
2022/03/10 14:02:25;;;;;;;11.00;5.82;;;;;;;;;;6218627;28;20128;-81
2022/03/10 14:05:28;;;;;;;10.70;5.57;;;;;;;;;;6232995;28;20145;-81
2022/03/10 14:08:31;;;;;;;7.72;4.80;;;;;;;;;;6218128;28;20041;-81
2022/03/10 14:11:32;;;;;;;8.18;5.25;;;;;;;;;;6218805;28;20073;-81
2022/03/10 14:14:36;;;;;;;8.75;5.00;;;;;;;;;;6225150;28;20458;-83
2022/03/10 14:17:42;;;;;;;10.85;5.70;;;;;;;;;;6243822;28;20042;-83
2022/03/10 14:20:50;;;;;;;11.80;6.07;;;;;;;;;;6242801;28;20041;-83
2022/03/10 14:23:56;;;;;;;7.97;4.60;;;;;;;;;;6244976;28;20097;-81
2022/03/10 14:27:12;;;;;;;10.00;5.22;;;;;;;;;;6244804;28;20057;-81
2022/03/10 14:30:24;;;;;;;9.35;5.65;;;;;;;;;;6244205;28;20076;-81
2022/03/10 14:33:25;;;;;;;10.35;5.78;;;;;;;;;;6233005;28;20107;-81
2022/03/10 14:36:29;;;;;;;8.90;5.70;;;;;;;;;;6234282;28;20050;-81
2022/03/10 14:39:32;;;;;;;8.93;5.55;;;;;;;;;;6219047;28;20053;-82
2022/03/10 14:42:34;;;;;;;9.45;5.47;;;;;;;;;;6219846;28;20632;-81
2022/03/10 14:45:39;;;;;;;10.60;5.33;;;;;;;;;;6218012;28;20054;-82
2022/03/10 14:48:42;;;;;;;8.55;5.53;;;;;;;;;;6233399;28;20065;-80
2022/03/10 14:51:44;;;;;;;9.18;5.50;;;;;;;;;;6267539;28;20068;-82
2022/03/10 14:54:45;;;;;;;10.52;5.75;;;;;;;;;;6253537;28;20128;-80
2022/03/10 14:57:47;;;;;;;8.95;5.53;;;;;;;;;;6211734;28;20054;-81
2022/03/10 15:00:52;;;;;;;13.60;6.43;;;;;;;;;;6221799;28;20053;-82
2022/03/10 15:03:54;;;;;;;10.20;5.63;;;;;;;;;;6221258;28;20052;-82
2022/03/10 15:06:56;;;;;;;10.65;5.75;;;;;;;;;;6229246;28;20046;-84
2022/03/10 15:10:17;;;;;;;22.30;12.20;;;;;;;;;;6267670;28;20056;-84
2022/03/10 15:13:19;;;;;;;15.57;8.32;;;;;;;;;;6226787;28;20060;-85
2022/03/10 15:16:22;;;;;;;11.20;6.35;;;;;;;;;;6201686;28;20050;-85
2022/03/10 15:19:24;;;;;;;8.17;5.50;;;;;;;;;;6217267;28;20042;-85
2022/03/10 15:22:26;;;;;;;10.15;5.45;;;;;;;;;;6231873;28;20065;-85
2022/03/10 15:25:30;;;;;;;10.57;6.18;;;;;;;;;;6217055;28;20396;-85
2022/03/10 15:28:31;;;;;;;10.07;5.85;;;;;;;;;;6244107;28;20056;-84
2022/03/10 15:31:33;;;;;;;11.05;5.88;;;;;;;;;;6241001;28;20100;-85
2022/03/10 15:34:35;;;;;;;12.85;6.13;;;;;;;;;;6243998;28;20061;-85
2022/03/10 15:37:37;;;;;;;8.88;5.50;;;;;;;;;;6232707;28;20123;-85
2022/03/10 15:40:39;;;;;;;10.13;5.93;;;;;;;;;;6253577;28;20451;-85
2022/03/10 15:43:41;;;;;;;9.60;5.70;;;;;;;;;;6255898;28;20054;-84
2022/03/10 15:46:42;;;;;;;9.52;5.68;;;;;;;;;;6229280;28;20051;-83
2022/03/10 15:49:44;;;;;;;9.57;5.70;;;;;;;;;;6219368;28;20050;-84
2022/03/10 15:52:49;;;;;;;7.65;5.00;;;;;;;;;;6269110;28;20367;-84
2022/03/10 15:55:54;;;;;;;7.38;4.90;;;;;;;;;;6242662;28;20188;-85
2022/03/10 15:58:56;;;;;;;;;;;;;;;;;;6222837;28;20121;-82
2022/03/10 16:01:58;;;;;;;8.95;5.38;;;;;;;;;;6218596;28;19976;-85
2022/03/10 16:05:00;;;;;;;8.82;4.55;;;;;;;;;;6219888;28;20088;-85
2022/03/10 16:08:06;;;;;;;8.70;4.55;;;;;;;;;;6218265;28;20119;-83
2022/03/10 16:11:08;;;;;;;7.70;4.70;;;;;;;;;;6236933;28;20073;-83
2022/03/10 16:14:09;;;;;;;9.88;4.97;;;;;;;;;;6244041;28;20126;-84
2022/03/10 16:17:13;;;;;;;6.60;4.55;;;;;;;;;;6280516;28;20057;-83
2022/03/10 16:20:21;;;;;;;7.50;4.60;;;;;;;;;;6245323;28;20132;-83
2022/03/10 16:23:23;;;;;;;9.45;5.85;;;;;;;;;;6226427;28;20037;-81
2022/03/10 16:26:25;;;;;;;8.98;5.25;;;;;;;;;;6229732;28;20060;-82
2022/03/10 16:29:30;;;;;;;6.55;4.38;;;;;;;;;;6228317;28;20117;-82
2022/03/10 16:32:32;;;;;;;8.98;5.22;;;;;;;;;;6216464;28;20457;-81
2022/03/10 16:35:34;;;;;;;11.32;6.00;;;;;;;;;;6221895;28;20652;-81
2022/03/10 16:38:37;;;;;;;13.82;6.53;;;;;;;;;;6234792;28;20042;-81
2022/03/10 16:41:39;;;;;;;10.07;4.10;;;;;;;;;;6220218;28;20574;-81
2022/03/10 16:44:47;;;;;;;8.32;4.30;;;;;;;;;;6230836;28;20076;-82
2022/03/10 16:47:49;;;;;;;7.18;3.72;;;;;;;;;;6217874;28;20134;-83
2022/03/10 16:50:51;;;;;;;7.15;4.00;;;;;;;;;;6219217;28;20128;-82
2022/03/10 16:53:52;;;;;;;10.00;4.95;;;;;;;;;;6219945;28;20041;-82
2022/03/10 16:56:54;;;;;;;10.95;6.30;;;;;;;;;;6256380;28;20049;-83
2022/03/10 16:59:57;;;;;;;19.27;8.98;;;;;;;;;;6245334;28;20686;-81
2022/03/10 17:02:58;;;;;;;9.75;5.30;;;;;;;;;;6244622;28;20045;-83
2022/03/10 17:06:00;;;;;;;11.57;7.78;;;;;;;;;;6241188;28;20045;-83
2022/03/10 17:09:05;;;;;;;10.20;5.93;;;;;;;;;;6221574;28;20449;-82
2022/03/10 17:12:07;;;;;;;13.65;8.43;;;;;;;;;;6237901;28;20588;-84
2022/03/10 17:15:09;;;;;;;12.48;6.72;;;;;;;;;;6220581;28;20046;-83
2022/03/10 17:18:11;;;;;;;9.68;6.07;;;;;;;;;;6218903;28;20499;-83
2022/03/10 17:21:15;;;;;;;13.05;6.75;;;;;;;;;;6213289;28;20532;-81
2022/03/10 17:24:16;;;;;;;15.07;9.60;;;;;;;;;;6245118;28;20060;-81
2022/03/10 17:27:20;;;;;;;18.42;9.75;;;;;;;;;;6243909;28;20045;-82
2022/03/10 17:30:41;;;;;;;15.00;7.88;;;;;;;;;;6235417;28;20042;-80
2022/03/10 17:33:43;;;;;;;16.92;9.10;;;;;;;;;;6225184;28;20509;-82
2022/03/10 17:36:45;;;;;;;16.85;8.70;;;;;;;;;;6227202;28;20041;-82
2022/03/10 17:39:47;;;;;;;11.02;6.20;;;;;;;;;;6241577;28;20144;-81
2022/03/10 17:42:49;;;;;;;7.45;4.40;;;;;;;;;;6242302;28;20494;-81
2022/03/10 17:45:51;;;;;;;13.30;6.03;;;;;;;;;;6243817;28;20634;-81
2022/03/10 17:48:52;;;;;;;8.73;5.72;;;;;;;;;;6238246;28;20037;-82
2022/03/10 17:51:54;;;;;;;9.40;4.22;;;;;;;;;;6242178;28;20127;-82
2022/03/10 17:54:56;;;;;;;7.18;4.72;;;;;;;;;;6241283;28;20049;-82
2022/03/10 17:57:58;;;;;;;8.98;5.68;;;;;;;;;;6228738;28;20121;-83
2022/03/10 18:00:59;;;;;;;9.95;6.15;;;;;;;;;;6242368;28;20041;-81
2022/03/10 18:04:02;;;;;;;12.13;5.97;;;;;;;;;;6239343;28;20784;-80
2022/03/10 18:07:04;;;;;;;10.63;5.88;;;;;;;;;;6233262;28;20038;-80